createdAt,value
2023-05-12T00:02:07.463Z,76.80
2023-05-12T00:04:36.021Z,76.80
2023-05-12T00:07:06.186Z,76.90
2023-05-12T00:09:35.608Z,76.90
2023-05-12T00:12:03.800Z,76.90
2023-05-12T00:14:31.107Z,76.90
2023-05-12T00:16:59.398Z,77.00
2023-05-12T00:19:26.874Z,77.00
2023-05-12T00:21:53.927Z,77.00
2023-05-12T00:24:20.998Z,77.00
2023-05-12T00:26:49.108Z,77.10
2023-05-12T00:29:16.139Z,77.10
2023-05-12T00:31:43.247Z,77.10
2023-05-12T00:34:10.409Z,77.20
2023-05-12T00:36:37.478Z,77.20
2023-05-12T00:39:04.664Z,77.20
2023-05-12T00:41:31.944Z,77.20
2023-05-12T00:43:58.996Z,77.20
2023-05-12T00:46:27.152Z,77.30
2023-05-12T00:48:54.525Z,77.30
2023-05-12T00:51:21.850Z,77.30
2023-05-12T00:53:50.690Z,77.30
2023-05-12T00:56:20.195Z,77.30
2023-05-12T00:58:48.012Z,77.40
2023-05-12T01:01:15.297Z,77.40
2023-05-12T01:03:42.594Z,77.40
2023-05-12T01:06:29.136Z,77.40
2023-05-12T01:08:56.638Z,77.70
2023-05-12T01:11:24.783Z,77.40
2023-05-12T01:13:52.235Z,77.40
2023-05-12T01:16:24.029Z,77.40
2023-05-12T01:18:54.788Z,77.50
2023-05-12T01:21:21.912Z,77.50
2023-05-12T01:24:07.461Z,77.40
2023-05-12T01:26:34.602Z,77.80
2023-05-12T01:29:03.142Z,77.50
2023-05-12T01:31:31.254Z,77.50
2023-05-12T01:33:58.343Z,77.50
2023-05-12T01:36:25.454Z,77.50
2023-05-12T01:38:52.595Z,77.50
2023-05-12T01:41:19.718Z,77.50
2023-05-12T01:43:46.787Z,77.50
2023-05-12T01:46:13.981Z,77.60
2023-05-12T01:48:41.615Z,77.60
2023-05-12T01:51:08.996Z,77.60
2023-05-12T01:53:36.455Z,77.60
2023-05-12T01:56:03.745Z,77.60
2023-05-12T01:58:30.853Z,77.60
2023-05-12T02:00:57.892Z,77.70
2023-05-12T02:03:25.115Z,77.60
2023-05-12T02:05:52.243Z,77.60
2023-05-12T02:08:19.395Z,77.60
2023-05-12T02:10:46.907Z,77.60
2023-05-12T02:13:14.174Z,77.60
2023-05-12T02:15:41.250Z,77.60
2023-05-12T02:18:08.335Z,77.60
2023-05-12T02:20:36.318Z,77.60
2023-05-12T02:23:03.372Z,77.60
2023-05-12T02:25:30.539Z,77.60
2023-05-12T02:27:57.597Z,77.60
2023-05-12T02:30:24.704Z,77.60
2023-05-12T02:32:51.898Z,77.50
2023-05-12T02:35:19.053Z,77.60
2023-05-12T02:37:46.113Z,77.60
2023-05-12T02:40:13.647Z,77.60
2023-05-12T02:42:40.704Z,77.60
2023-05-12T02:45:08.617Z,77.60
2023-05-12T02:47:36.425Z,77.60
2023-05-12T02:50:04.162Z,77.70
2023-05-12T02:52:31.225Z,77.60
2023-05-12T02:54:58.368Z,77.60
2023-05-12T02:57:27.560Z,77.60
2023-05-12T02:59:54.741Z,77.60
2023-05-12T03:02:21.868Z,77.60
2023-05-12T03:04:49.006Z,77.60
2023-05-12T03:07:16.155Z,77.70
2023-05-12T03:09:43.295Z,77.60
2023-05-12T03:12:10.636Z,77.60
2023-05-12T03:14:37.704Z,77.60
2023-05-12T03:17:05.061Z,77.70
2023-05-12T03:19:32.198Z,77.60
2023-05-12T03:21:59.470Z,77.60
2023-05-12T03:24:26.876Z,77.60
2023-05-12T03:26:55.096Z,77.60
2023-05-12T03:29:22.460Z,77.60
2023-05-12T03:31:49.727Z,77.50
2023-05-12T03:34:16.837Z,77.50
2023-05-12T03:36:43.856Z,77.40
2023-05-12T03:39:11.115Z,77.40
2023-05-12T03:41:39.305Z,77.40
2023-05-12T03:44:08.689Z,77.40
2023-05-12T03:46:35.964Z,77.40
2023-05-12T03:49:03.314Z,77.30
2023-05-12T03:51:31.212Z,77.30
2023-05-12T03:53:58.747Z,77.30
2023-05-12T03:56:25.914Z,77.30
2023-05-12T03:58:53.012Z,77.30
2023-05-12T04:01:20.254Z,77.30
2023-05-12T04:03:47.534Z,77.30
2023-05-12T04:06:14.918Z,77.30
2023-05-12T04:08:42.263Z,77.30
2023-05-12T04:11:09.871Z,77.30
2023-05-12T04:13:36.981Z,77.30
2023-05-12T04:16:04.597Z,77.30
2023-05-12T04:18:32.013Z,77.40
2023-05-12T04:20:59.285Z,77.40
2023-05-12T04:23:26.591Z,77.40
2023-05-12T04:25:53.700Z,77.50
2023-05-12T04:28:21.023Z,77.50
2023-05-12T04:30:48.251Z,77.50
2023-05-12T04:33:15.389Z,77.50
2023-05-12T04:35:42.476Z,77.50
2023-05-12T04:38:09.622Z,77.50
2023-05-12T04:40:36.677Z,77.40
2023-05-12T04:43:03.750Z,77.40
2023-05-12T04:45:30.899Z,77.40
2023-05-12T04:47:58.072Z,77.30
2023-05-12T04:50:25.233Z,77.30
2023-05-12T04:52:52.358Z,77.30
2023-05-12T04:55:19.657Z,77.30
2023-05-12T04:57:46.980Z,77.20
2023-05-12T05:00:15.148Z,77.20
2023-05-12T05:02:42.424Z,77.10
2023-05-12T05:05:10.285Z,77.10
2023-05-12T05:07:37.355Z,77.10
2023-05-12T05:10:05.199Z,77.20
2023-05-12T05:12:32.390Z,77.20
2023-05-12T05:14:59.473Z,77.20
2023-05-12T05:17:26.850Z,77.20
2023-05-12T05:19:58.309Z,77.20
2023-05-12T05:22:26.454Z,77.30
2023-05-12T05:24:53.808Z,77.30
2023-05-12T05:27:21.059Z,77.20
2023-05-12T05:29:48.155Z,77.30
2023-05-12T05:32:15.521Z,77.30
2023-05-12T05:34:42.777Z,77.30
2023-05-12T05:37:09.998Z,77.40
2023-05-12T05:39:38.131Z,77.40
2023-05-12T05:42:05.347Z,77.40
2023-05-12T05:44:32.424Z,77.40
2023-05-12T05:46:59.624Z,77.50
2023-05-12T05:49:26.771Z,77.50
2023-05-12T05:51:53.881Z,77.50
2023-05-12T05:54:24.208Z,77.50
2023-05-12T05:56:51.713Z,77.60
2023-05-12T05:59:18.743Z,77.60
2023-05-12T06:01:46.219Z,77.60
2023-05-12T06:04:13.426Z,77.70
2023-05-12T06:06:40.500Z,77.70
2023-05-12T06:09:08.984Z,77.70
2023-05-12T06:11:35.998Z,77.70
2023-05-12T06:14:03.114Z,77.70
2023-05-12T06:16:30.348Z,77.70
2023-05-12T06:18:57.569Z,77.70
2023-05-12T06:21:24.703Z,77.70
2023-05-12T06:23:51.799Z,77.50
2023-05-12T06:26:18.871Z,77.50
2023-05-12T06:28:45.839Z,77.50
2023-05-12T06:31:12.839Z,77.50
2023-05-12T06:33:39.976Z,77.40
2023-05-12T06:36:07.922Z,77.40
2023-05-12T06:38:34.974Z,77.40
2023-05-12T06:41:02.040Z,77.30
2023-05-12T06:43:29.124Z,77.20
2023-05-12T06:45:57.036Z,77.10
2023-05-12T06:48:24.524Z,77.00
2023-05-12T06:50:51.803Z,77.00
2023-05-12T06:53:18.884Z,77.00
2023-05-12T06:55:47.080Z,77.10
2023-05-12T06:58:14.211Z,77.10
2023-05-12T07:00:41.265Z,77.10
2023-05-12T07:03:10.490Z,77.30
2023-05-12T07:05:37.890Z,77.30
2023-05-12T07:08:05.934Z,77.30
2023-05-12T07:10:33.318Z,77.40
2023-05-12T07:13:00.483Z,77.40
2023-05-12T07:15:27.627Z,77.40
2023-05-12T07:17:55.907Z,77.50
2023-05-12T07:20:23.324Z,77.50
2023-05-12T07:22:52.233Z,77.50
2023-05-12T07:25:19.699Z,77.50
2023-05-12T07:27:46.928Z,77.60
2023-05-12T07:30:14.523Z,77.60
2023-05-12T07:32:41.892Z,77.50
2023-05-12T07:35:09.493Z,77.60
2023-05-12T07:37:36.599Z,77.70
2023-05-12T07:40:04.802Z,77.70
2023-05-12T07:42:32.045Z,77.70
2023-05-12T07:44:59.835Z,77.70
2023-05-12T07:47:28.835Z,77.70
2023-05-12T07:49:56.049Z,77.70
2023-05-12T07:52:24.267Z,77.70
2023-05-12T07:54:51.341Z,77.70
2023-05-12T07:57:18.510Z,77.70
2023-05-12T07:59:45.618Z,77.70
2023-05-12T08:02:13.062Z,77.70
2023-05-12T08:04:41.460Z,77.70
2023-05-12T08:07:09.120Z,77.70
2023-05-12T08:09:36.176Z,77.80
2023-05-12T08:12:03.302Z,77.90
2023-05-12T08:14:30.420Z,78.00
2023-05-12T08:16:57.493Z,78.00
2023-05-12T08:19:24.729Z,78.00
2023-05-12T08:21:51.894Z,78.00
2023-05-12T08:24:19.037Z,78.00
2023-05-12T08:26:46.124Z,77.90
2023-05-12T08:29:13.306Z,77.90
2023-05-12T08:31:40.494Z,77.90
2023-05-12T08:34:10.893Z,77.70
2023-05-12T08:36:39.789Z,77.70
2023-05-12T08:39:10.183Z,77.80
2023-05-12T08:42:09.504Z,77.80
2023-05-12T08:44:40.910Z,77.80
2023-05-12T08:47:09.580Z,77.80
2023-05-12T08:49:39.684Z,77.70
2023-05-12T08:52:08.565Z,77.70
2023-05-12T08:54:48.724Z,77.60
2023-05-12T08:57:23.702Z,77.60
2023-05-12T08:59:54.829Z,77.50
2023-05-12T09:02:24.635Z,77.50
2023-05-12T09:04:54.987Z,77.40
2023-05-12T09:07:26.945Z,77.40
2023-05-12T09:09:59.201Z,77.30
2023-05-12T09:12:31.074Z,77.40
2023-05-12T09:15:10.342Z,77.40
2023-05-12T09:17:38.082Z,77.40
2023-05-12T09:20:11.312Z,77.60
2023-05-12T09:22:42.333Z,77.90
2023-05-12T09:25:19.259Z,78.00
2023-05-12T09:27:54.757Z,78.30
2023-05-12T09:30:32.635Z,78.30
2023-05-12T09:33:14.025Z,78.40
2023-05-12T09:35:46.054Z,78.30
2023-05-12T09:38:14.791Z,78.20
2023-05-12T09:40:43.700Z,78.00
2023-05-12T09:43:14.546Z,78.00
2023-05-12T09:45:44.092Z,77.90
2023-05-12T09:48:13.995Z,77.80
2023-05-12T09:50:50.584Z,77.60
2023-05-12T09:53:20.778Z,77.50
2023-05-12T09:55:49.159Z,77.50
2023-05-12T09:58:21.059Z,77.40
2023-05-12T10:03:22.187Z,77.20
2023-05-12T10:05:54.221Z,77.10
2023-05-12T10:08:30.772Z,77.10
2023-05-12T10:11:02.571Z,77.00
2023-05-12T10:13:30.059Z,77.00
2023-05-12T10:15:59.418Z,76.90
2023-05-12T10:18:26.979Z,76.90
2023-05-12T10:20:56.850Z,76.90
2023-05-12T10:23:25.495Z,76.90
2023-05-12T10:25:58.737Z,77.00
2023-05-12T10:28:25.954Z,77.00
2023-05-12T10:30:54.708Z,77.00
2023-05-12T10:33:22.147Z,77.00
2023-05-12T10:35:49.644Z,76.90
2023-05-12T10:38:17.015Z,76.90
2023-05-12T10:41:00.220Z,77.00
2023-05-12T10:43:44.044Z,77.00
2023-05-12T10:46:19.210Z,77.00
2023-05-12T10:49:08.900Z,76.80
2023-05-12T10:51:49.872Z,76.80
2023-05-12T10:54:29.672Z,76.80
2023-05-12T10:57:00.716Z,76.80
2023-05-12T10:59:28.834Z,76.80
2023-05-12T11:02:06.768Z,76.80
2023-05-12T11:05:11.114Z,76.70
2023-05-12T11:07:39.628Z,76.70
2023-05-12T11:10:08.393Z,76.80
2023-05-12T11:12:36.629Z,76.90
2023-05-12T11:15:06.647Z,77.00
2023-05-12T11:17:34.401Z,77.00
2023-05-12T11:20:02.024Z,76.90
2023-05-12T11:22:30.101Z,76.80
2023-05-12T11:24:57.580Z,76.80
2023-05-12T11:27:24.804Z,76.70
2023-05-12T11:30:00.776Z,76.60
2023-05-12T11:32:28.421Z,76.60
2023-05-12T11:34:55.762Z,76.60
2023-05-12T11:37:23.452Z,76.70
2023-05-12T11:39:53.093Z,76.70
2023-05-12T11:42:22.308Z,76.80
2023-05-12T11:44:51.437Z,76.80
2023-05-12T11:47:21.254Z,76.90
2023-05-12T11:49:54.830Z,77.10
2023-05-12T11:52:24.349Z,77.30
2023-05-12T11:54:57.404Z,77.70
2023-05-12T11:57:30.426Z,77.80
2023-05-12T12:00:10.021Z,77.60
2023-05-12T12:02:38.989Z,77.30
2023-05-12T12:05:18.451Z,77.10
2023-05-12T12:07:45.847Z,76.60
2023-05-12T12:10:18.457Z,76.80
2023-05-12T12:12:48.766Z,76.80
2023-05-12T12:15:15.940Z,77.10
2023-05-12T12:17:43.063Z,77.60
2023-05-12T12:20:10.977Z,77.90
2023-05-12T12:22:38.108Z,78.30
2023-05-12T12:25:06.169Z,78.30
2023-05-12T12:27:33.311Z,78.00
2023-05-12T12:30:00.479Z,77.50
2023-05-12T12:32:27.680Z,77.30
2023-05-12T12:34:59.751Z,77.20
2023-05-12T12:37:26.906Z,77.10
2023-05-12T12:39:54.923Z,76.80
2023-05-12T12:42:22.388Z,76.50
2023-05-12T12:44:51.813Z,76.20
2023-05-12T12:47:19.044Z,75.80
2023-05-12T12:49:46.367Z,75.60
2023-05-12T12:52:13.541Z,75.50
2023-05-12T12:54:40.601Z,75.20
2023-05-12T12:57:07.707Z,75.00
2023-05-12T12:59:35.004Z,74.90
2023-05-12T13:02:02.629Z,74.60
2023-05-12T13:04:29.953Z,74.40
2023-05-12T13:06:57.051Z,74.20
2023-05-12T13:09:24.631Z,74.10
2023-05-12T13:11:51.904Z,74.10
2023-05-12T13:14:19.242Z,74.10
2023-05-12T13:16:46.475Z,73.90
2023-05-12T13:19:13.969Z,73.60
2023-05-12T13:21:42.007Z,73.30
2023-05-12T13:24:09.105Z,73.10
2023-05-12T13:26:36.440Z,73.10
2023-05-12T13:29:04.350Z,73.10
2023-05-12T13:31:31.649Z,73.10
2023-05-12T13:33:59.006Z,73.10
2023-05-12T13:36:26.965Z,73.00
2023-05-12T13:38:54.020Z,72.70
2023-05-12T13:41:21.122Z,72.60
2023-05-12T13:43:48.315Z,72.40
2023-05-12T13:46:15.393Z,72.30
2023-05-12T13:48:42.798Z,72.30
2023-05-12T13:51:09.914Z,72.20
2023-05-12T13:53:38.993Z,72.20
2023-05-12T13:56:07.441Z,72.00
2023-05-12T13:58:34.488Z,72.00
2023-05-12T14:01:01.754Z,71.90
2023-05-12T14:03:29.286Z,72.10
2023-05-12T14:05:56.285Z,72.10
2023-05-12T14:08:23.354Z,72.10
2023-05-12T14:10:50.721Z,72.10
2023-05-12T14:13:17.852Z,72.20
2023-05-12T14:15:49.049Z,72.20
2023-05-12T14:18:21.132Z,72.30
2023-05-12T14:20:48.543Z,72.40
2023-05-12T14:23:15.921Z,72.40
2023-05-12T14:25:43.065Z,72.30
2023-05-12T14:28:10.312Z,72.10
2023-05-12T14:30:37.699Z,72.00
2023-05-12T14:33:05.195Z,71.90
2023-05-12T14:35:32.655Z,71.70
2023-05-12T14:37:59.764Z,71.60
2023-05-12T14:40:27.539Z,71.50
2023-05-12T14:42:55.455Z,71.30
2023-05-12T14:45:23.354Z,71.20
2023-05-12T14:47:50.521Z,71.10
2023-05-12T14:50:19.053Z,71.10
2023-05-12T14:52:46.559Z,71.00
2023-05-12T14:55:14.964Z,71.10
2023-05-12T14:57:42.786Z,71.00
2023-05-12T15:00:13.883Z,71.10
2023-05-12T15:02:42.645Z,71.20
2023-05-12T15:05:12.209Z,71.30
2023-05-12T15:07:39.335Z,71.30
2023-05-12T15:10:07.334Z,71.30
2023-05-12T15:12:35.302Z,71.30
2023-05-12T15:15:04.746Z,71.40
2023-05-12T15:17:32.247Z,71.50
2023-05-12T15:19:59.572Z,71.60
2023-05-12T15:22:26.989Z,71.60
2023-05-12T15:24:54.044Z,71.60
2023-05-12T15:27:21.082Z,71.50
2023-05-12T15:29:48.238Z,71.50
2023-05-12T15:32:15.792Z,71.50
2023-05-12T15:34:42.903Z,71.50
2023-05-12T15:37:11.044Z,71.50
2023-05-12T15:39:38.631Z,71.70
2023-05-12T15:42:07.385Z,71.90
2023-05-12T15:44:34.715Z,71.70
2023-05-12T15:47:02.271Z,71.70
2023-05-12T15:49:29.493Z,71.50
2023-05-12T15:51:56.580Z,71.30
2023-05-12T15:54:23.825Z,71.20
2023-05-12T15:56:50.972Z,71.10
2023-05-12T15:59:18.116Z,71.00
2023-05-12T16:01:45.543Z,71.10
2023-05-12T16:04:13.140Z,71.10
2023-05-12T16:06:40.626Z,71.10
2023-05-12T16:09:07.915Z,71.00
2023-05-12T16:11:35.242Z,71.00
2023-05-12T16:14:02.751Z,71.00
2023-05-12T16:16:30.870Z,71.10
2023-05-12T16:18:58.081Z,71.20
2023-05-12T16:21:25.198Z,71.30
2023-05-12T16:23:52.349Z,71.30
2023-05-12T16:26:19.474Z,71.30
2023-05-12T16:28:47.114Z,71.40
2023-05-12T16:31:18.461Z,71.30
2023-05-12T16:33:46.141Z,71.10
2023-05-12T16:36:13.327Z,71.10
2023-05-12T16:38:41.071Z,71.00
2023-05-12T16:41:08.208Z,71.00
2023-05-12T16:46:32.302Z,71.00
2023-05-12T16:48:59.801Z,71.10
2023-05-12T16:51:31.032Z,71.10
2023-05-12T16:53:58.594Z,71.10
2023-05-12T16:56:28.688Z,71.10
2023-05-12T16:58:56.086Z,71.10
2023-05-12T17:01:23.192Z,71.10
2023-05-12T17:03:50.802Z,71.10
2023-05-12T17:06:19.305Z,71.10
2023-05-12T17:08:47.617Z,71.10
2023-05-12T17:11:15.346Z,71.10
2023-05-12T17:13:43.308Z,71.10
2023-05-12T17:16:10.518Z,71.10
2023-05-12T17:21:10.716Z,71.10
2023-05-12T17:23:38.105Z,71.10
2023-05-12T17:26:07.588Z,71.20
2023-05-12T17:28:37.620Z,71.20
2023-05-12T17:31:10.756Z,71.40
2023-05-12T17:33:38.048Z,71.30
2023-05-12T17:36:12.215Z,71.30
2023-05-12T17:38:41.479Z,71.40
2023-05-12T17:41:08.699Z,71.40
2023-05-12T17:43:36.001Z,71.40
2023-05-12T17:46:05.029Z,71.40
2023-05-12T17:48:35.442Z,71.40
2023-05-12T17:51:06.974Z,71.40
2023-05-12T17:53:35.136Z,71.40
2023-05-12T17:56:02.306Z,71.20
2023-05-12T17:58:29.496Z,71.30
2023-05-12T18:00:56.906Z,71.40
2023-05-12T18:03:24.368Z,71.40
2023-05-12T18:05:53.395Z,71.50
2023-05-12T18:08:21.766Z,71.50
2023-05-12T18:10:49.191Z,71.50
2023-05-12T18:13:16.593Z,71.60
2023-05-12T18:15:43.831Z,71.60
2023-05-12T18:18:11.141Z,71.60
2023-05-12T18:20:38.683Z,71.50
2023-05-12T18:23:05.903Z,71.50
2023-05-12T18:25:33.074Z,71.50
2023-05-12T18:28:00.249Z,71.40
2023-05-12T18:30:27.486Z,71.40
2023-05-12T18:32:54.623Z,71.40
2023-05-12T18:35:22.348Z,71.50
2023-05-12T18:37:49.965Z,71.50
2023-05-12T18:40:17.159Z,71.50
2023-05-12T18:42:44.399Z,71.50
2023-05-12T18:45:12.209Z,71.50
2023-05-12T18:47:39.520Z,71.50
2023-05-12T18:50:08.418Z,71.50
2023-05-12T18:52:36.056Z,71.50
2023-05-12T18:55:03.286Z,71.50
2023-05-12T18:57:30.497Z,71.60
2023-05-12T18:59:57.547Z,71.60
2023-05-12T19:02:24.724Z,71.60
2023-05-12T19:04:54.228Z,71.60
2023-05-12T19:07:21.642Z,71.60
2023-05-12T19:09:48.804Z,71.70
2023-05-12T19:12:15.944Z,71.70
2023-05-12T19:14:43.746Z,71.70
2023-05-12T19:17:11.246Z,71.70
2023-05-12T19:19:38.463Z,71.70
2023-05-12T19:22:06.117Z,71.70
2023-05-12T19:24:34.328Z,71.70
2023-05-12T19:27:01.822Z,71.70
2023-05-12T19:29:28.974Z,71.70
2023-05-12T19:31:56.258Z,71.70
2023-05-12T19:34:23.985Z,71.70
2023-05-12T19:36:53.202Z,71.70
2023-05-12T19:39:20.575Z,71.70
2023-05-12T19:41:48.065Z,71.90
2023-05-12T19:44:35.644Z,71.90
2023-05-12T19:47:05.989Z,71.90
2023-05-12T19:49:35.168Z,71.90
2023-05-12T19:52:03.689Z,71.90
2023-05-12T19:54:30.910Z,71.90
2023-05-12T19:56:58.443Z,71.90
2023-05-12T19:59:26.775Z,71.90
2023-05-12T20:01:54.046Z,72.00
2023-05-12T20:04:21.114Z,72.10
2023-05-12T20:06:48.257Z,72.00
2023-05-12T20:09:15.301Z,72.00
2023-05-12T20:11:42.394Z,72.00
2023-05-12T20:14:14.234Z,72.00
2023-05-12T20:16:41.205Z,72.00
2023-05-12T20:19:08.500Z,71.80
2023-05-12T20:21:35.636Z,71.80
2023-05-12T20:24:02.705Z,71.80
2023-05-12T20:26:30.713Z,71.90
2023-05-12T20:28:59.624Z,71.90
2023-05-12T20:31:27.807Z,71.90
2023-05-12T20:34:04.885Z,71.90
2023-05-12T20:36:33.081Z,72.00
2023-05-12T20:39:00.350Z,72.00
2023-05-12T20:41:28.022Z,72.00
2023-05-12T20:43:55.097Z,72.10
2023-05-12T20:46:22.220Z,72.10
2023-05-12T20:48:49.447Z,72.10
2023-05-12T20:51:16.577Z,72.10
2023-05-12T20:53:43.690Z,72.10
2023-05-12T20:56:10.908Z,72.20
2023-05-12T20:58:38.078Z,72.20
2023-05-12T21:01:05.289Z,72.10
2023-05-12T21:03:34.395Z,72.10
2023-05-12T21:06:02.331Z,72.20
2023-05-12T21:08:29.399Z,72.30
2023-05-12T21:10:59.567Z,72.30
2023-05-12T21:13:27.873Z,72.30
2023-05-12T21:15:54.972Z,72.30
2023-05-12T21:18:23.291Z,72.30
2023-05-12T21:20:50.532Z,72.30
2023-05-12T21:23:17.718Z,72.40
2023-05-12T21:25:44.972Z,72.40
2023-05-12T21:28:12.040Z,72.40
2023-05-12T21:30:39.341Z,72.40
2023-05-12T21:33:06.715Z,72.50
2023-05-12T21:35:33.775Z,72.50
2023-05-12T21:38:01.379Z,72.50
2023-05-12T21:40:29.392Z,72.50
2023-05-12T21:42:56.463Z,72.50
2023-05-12T21:45:23.645Z,72.50
2023-05-12T21:47:51.532Z,72.60
2023-05-12T21:50:21.754Z,72.60
2023-05-12T21:52:50.122Z,72.60
2023-05-12T21:55:17.639Z,72.60
2023-05-12T21:57:45.508Z,72.70
2023-05-12T22:00:15.170Z,72.70
2023-05-12T22:02:43.280Z,72.70
2023-05-12T22:05:10.566Z,72.70
2023-05-12T22:07:37.619Z,72.80
2023-05-12T22:10:06.679Z,72.80
2023-05-12T22:12:35.594Z,72.80
2023-05-12T22:15:02.818Z,72.80
2023-05-12T22:17:30.065Z,72.80
2023-05-12T22:19:57.113Z,72.90
2023-05-12T22:22:24.269Z,72.90
2023-05-12T22:24:52.085Z,72.90
2023-05-12T22:27:22.210Z,72.90
2023-05-12T22:29:49.839Z,73.00
2023-05-12T22:32:19.862Z,73.00
2023-05-12T22:34:47.410Z,73.00
2023-05-12T22:37:14.814Z,73.10
2023-05-12T22:39:42.008Z,73.10
2023-05-12T22:42:09.407Z,73.10
2023-05-12T22:44:36.531Z,73.10
2023-05-12T22:47:03.909Z,73.10
2023-05-12T22:49:35.898Z,73.10
2023-05-12T22:52:03.220Z,73.20
2023-05-12T22:54:30.378Z,73.10
2023-05-12T22:56:57.487Z,73.10
2023-05-12T22:59:24.604Z,73.20
2023-05-12T23:01:51.850Z,73.20
2023-05-12T23:04:19.107Z,73.10
2023-05-12T23:06:46.309Z,73.20
2023-05-12T23:09:14.285Z,73.20
2023-05-12T23:11:41.423Z,73.30
2023-05-12T23:14:09.129Z,73.30
2023-05-12T23:16:36.527Z,73.30
2023-05-12T23:19:04.116Z,73.30
2023-05-12T23:21:31.689Z,73.30
2023-05-12T23:23:58.778Z,73.30
2023-05-12T23:26:28.312Z,73.30
2023-05-12T23:28:55.794Z,73.30
2023-05-12T23:31:23.140Z,73.30
2023-05-12T23:36:49.161Z,73.30
2023-05-12T23:40:15.131Z,73.30
2023-05-12T23:42:42.258Z,73.40
2023-05-12T23:45:21.584Z,73.30
2023-05-12T23:47:53.396Z,73.30
2023-05-12T23:50:23.649Z,73.30
2023-05-12T23:53:01.924Z,73.30
2023-05-12T23:55:32.858Z,73.30
2023-05-12T23:58:02.818Z,73.30
